sensor_id;sensor_type;location;lat;lon;timestamp;temperature;humidity
72930;DHT22;61073;54.260;20.816;2022-09-09T00:02:21;20.70;52.20
72930;DHT22;61073;54.260;20.816;2022-09-09T00:07:50;20.70;51.50
72930;DHT22;61073;54.260;20.816;2022-09-09T00:10:39;20.70;51.60
72930;DHT22;61073;54.260;20.816;2022-09-09T00:19:20;20.70;51.90
72930;DHT22;61073;54.260;20.816;2022-09-09T00:24:28;20.60;51.50
72930;DHT22;61073;54.260;20.816;2022-09-09T00:27:08;20.70;51.60
72930;DHT22;61073;54.260;20.816;2022-09-09T00:30:01;20.60;51.90
72930;DHT22;61073;54.260;20.816;2022-09-09T00:32:30;20.60;51.60
72930;DHT22;61073;54.260;20.816;2022-09-09T00:35:18;20.60;51.70
72930;DHT22;61073;54.260;20.816;2022-09-09T00:37:50;20.60;52.00
72930;DHT22;61073;54.260;20.816;2022-09-09T00:40:41;20.60;51.90
72930;DHT22;61073;54.260;20.816;2022-09-09T00:43:31;20.60;52.00
72930;DHT22;61073;54.260;20.816;2022-09-09T00:57:32;20.60;51.50
72930;DHT22;61073;54.260;20.816;2022-09-09T01:00:29;20.60;51.70
72930;DHT22;61073;54.260;20.816;2022-09-09T01:15:03;20.60;51.60
72930;DHT22;61073;54.260;20.816;2022-09-09T01:17:36;20.50;51.60
72930;DHT22;61073;54.260;20.816;2022-09-09T01:20:25;20.50;50.90
72930;DHT22;61073;54.260;20.816;2022-09-09T01:26:24;20.50;50.80
72930;DHT22;61073;54.260;20.816;2022-09-09T01:28:52;20.50;51.30
72930;DHT22;61073;54.260;20.816;2022-09-09T01:31:31;20.50;51.40
72930;DHT22;61073;54.260;20.816;2022-09-09T01:33:58;20.50;51.50
72930;DHT22;61073;54.260;20.816;2022-09-09T01:36:46;20.50;51.00
72930;DHT22;61073;54.260;20.816;2022-09-09T01:39:14;20.50;51.20
72930;DHT22;61073;54.260;20.816;2022-09-09T01:41:40;20.50;51.20
72930;DHT22;61073;54.260;20.816;2022-09-09T01:44:08;20.50;50.70
72930;DHT22;61073;54.260;20.816;2022-09-09T01:46:35;20.50;51.20
72930;DHT22;61073;54.260;20.816;2022-09-09T01:49:03;20.50;51.30
72930;DHT22;61073;54.260;20.816;2022-09-09T01:51:31;20.50;51.70
72930;DHT22;61073;54.260;20.816;2022-09-09T01:53:58;20.50;51.30
72930;DHT22;61073;54.260;20.816;2022-09-09T02:05:01;20.50;51.50
72930;DHT22;61073;54.260;20.816;2022-09-09T02:10:30;20.50;51.20
72930;DHT22;61073;54.260;20.816;2022-09-09T02:13:20;20.50;51.20
72930;DHT22;61073;54.260;20.816;2022-09-09T02:21:42;20.50;50.60
72930;DHT22;61073;54.260;20.816;2022-09-09T02:24:11;20.40;51.50
72930;DHT22;61073;54.260;20.816;2022-09-09T02:26:41;20.50;50.70
72930;DHT22;61073;54.260;20.816;2022-09-09T02:29:18;20.40;51.40
72930;DHT22;61073;54.260;20.816;2022-09-09T02:31:46;20.40;50.60
72930;DHT22;61073;54.260;20.816;2022-09-09T02:34:16;20.40;50.90
72930;DHT22;61073;54.260;20.816;2022-09-09T02:36:45;20.50;50.70
72930;DHT22;61073;54.260;20.816;2022-09-09T02:39:13;20.40;50.70
72930;DHT22;61073;54.260;20.816;2022-09-09T02:41:41;20.40;51.10
72930;DHT22;61073;54.260;20.816;2022-09-09T02:44:15;20.40;50.50
72930;DHT22;61073;54.260;20.816;2022-09-09T02:47:06;20.40;50.20
72930;DHT22;61073;54.260;20.816;2022-09-09T02:49:56;20.40;51.10
72930;DHT22;61073;54.260;20.816;2022-09-09T02:55:50;20.40;50.90
72930;DHT22;61073;54.260;20.816;2022-09-09T02:58:21;20.40;51.10
72930;DHT22;61073;54.260;20.816;2022-09-09T03:00:50;20.40;50.70
72930;DHT22;61073;54.260;20.816;2022-09-09T03:03:18;20.40;50.00
72930;DHT22;61073;54.260;20.816;2022-09-09T03:05:45;20.40;51.00
72930;DHT22;61073;54.260;20.816;2022-09-09T03:08:12;20.40;50.90
72930;DHT22;61073;54.260;20.816;2022-09-09T03:10:39;20.40;50.80
72930;DHT22;61073;54.260;20.816;2022-09-09T03:13:06;20.40;50.60
72930;DHT22;61073;54.260;20.816;2022-09-09T03:15:33;20.40;50.70
72930;DHT22;61073;54.260;20.816;2022-09-09T03:18:00;20.40;50.40
72930;DHT22;61073;54.260;20.816;2022-09-09T03:20:29;20.40;50.70
72930;DHT22;61073;54.260;20.816;2022-09-09T03:22:57;20.40;51.00
72930;DHT22;61073;54.260;20.816;2022-09-09T03:25:24;20.40;50.40
72930;DHT22;61073;54.260;20.816;2022-09-09T03:27:52;20.40;50.60
72930;DHT22;61073;54.260;20.816;2022-09-09T03:30:26;20.40;50.70
72930;DHT22;61073;54.260;20.816;2022-09-09T03:32:53;20.40;50.70
72930;DHT22;61073;54.260;20.816;2022-09-09T03:35:19;20.40;51.00
72930;DHT22;61073;54.260;20.816;2022-09-09T03:37:46;20.40;50.60
72930;DHT22;61073;54.260;20.816;2022-09-09T03:40:13;20.40;50.60
72930;DHT22;61073;54.260;20.816;2022-09-09T03:42:40;20.40;50.80
72930;DHT22;61073;54.260;20.816;2022-09-09T03:45:08;20.40;50.00
72930;DHT22;61073;54.260;20.816;2022-09-09T03:47:36;20.40;50.80
72930;DHT22;61073;54.260;20.816;2022-09-09T03:50:04;20.40;50.70
72930;DHT22;61073;54.260;20.816;2022-09-09T03:52:35;20.40;50.30
72930;DHT22;61073;54.260;20.816;2022-09-09T03:55:02;20.40;50.30
72930;DHT22;61073;54.260;20.816;2022-09-09T03:57:29;20.40;50.40
72930;DHT22;61073;54.260;20.816;2022-09-09T03:59:56;20.40;50.40
72930;DHT22;61073;54.260;20.816;2022-09-09T04:02:23;20.40;50.90
72930;DHT22;61073;54.260;20.816;2022-09-09T04:04:50;20.40;50.40
72930;DHT22;61073;54.260;20.816;2022-09-09T04:07:17;20.40;50.30
72930;DHT22;61073;54.260;20.816;2022-09-09T04:09:43;20.40;49.30
72930;DHT22;61073;54.260;20.816;2022-09-09T04:12:10;20.30;50.60
72930;DHT22;61073;54.260;20.816;2022-09-09T04:14:39;20.40;50.00
72930;DHT22;61073;54.260;20.816;2022-09-09T04:17:06;20.30;50.10
72930;DHT22;61073;54.260;20.816;2022-09-09T04:19:33;20.30;49.50
72930;DHT22;61073;54.260;20.816;2022-09-09T04:21:59;20.30;49.70
72930;DHT22;61073;54.260;20.816;2022-09-09T04:24:26;20.30;49.70
72930;DHT22;61073;54.260;20.816;2022-09-09T04:26:53;20.30;49.70
72930;DHT22;61073;54.260;20.816;2022-09-09T04:29:20;20.30;49.70
72930;DHT22;61073;54.260;20.816;2022-09-09T04:31:47;20.30;50.20
72930;DHT22;61073;54.260;20.816;2022-09-09T04:34:13;20.30;50.10
72930;DHT22;61073;54.260;20.816;2022-09-09T04:36:40;20.30;50.40
72930;DHT22;61073;54.260;20.816;2022-09-09T04:39:07;20.30;49.60
72930;DHT22;61073;54.260;20.816;2022-09-09T04:41:34;20.30;49.80
72930;DHT22;61073;54.260;20.816;2022-09-09T04:44:01;20.30;49.80
72930;DHT22;61073;54.260;20.816;2022-09-09T04:46:27;20.20;49.60
72930;DHT22;61073;54.260;20.816;2022-09-09T04:48:54;20.30;49.60
72930;DHT22;61073;54.260;20.816;2022-09-09T04:51:21;20.20;49.70
72930;DHT22;61073;54.260;20.816;2022-09-09T04:53:48;20.20;49.80
72930;DHT22;61073;54.260;20.816;2022-09-09T04:56:17;20.30;49.90
72930;DHT22;61073;54.260;20.816;2022-09-09T04:58:44;20.30;49.50
72930;DHT22;61073;54.260;20.816;2022-09-09T05:01:14;20.30;49.30
72930;DHT22;61073;54.260;20.816;2022-09-09T05:03:41;20.30;49.10
72930;DHT22;61073;54.260;20.816;2022-09-09T05:06:11;20.30;49.10
72930;DHT22;61073;54.260;20.816;2022-09-09T05:08:38;20.30;49.50
72930;DHT22;61073;54.260;20.816;2022-09-09T05:11:28;20.30;50.10
72930;DHT22;61073;54.260;20.816;2022-09-09T05:13:55;20.20;48.00
72930;DHT22;61073;54.260;20.816;2022-09-09T05:16:23;20.10;47.50
72930;DHT22;61073;54.260;20.816;2022-09-09T05:18:50;20.00;47.00
72930;DHT22;61073;54.260;20.816;2022-09-09T05:21:19;20.00;47.30
72930;DHT22;61073;54.260;20.816;2022-09-09T05:23:46;20.00;46.00
72930;DHT22;61073;54.260;20.816;2022-09-09T05:26:15;20.00;47.00
72930;DHT22;61073;54.260;20.816;2022-09-09T05:28:43;20.00;46.40
72930;DHT22;61073;54.260;20.816;2022-09-09T05:31:10;19.90;46.10
72930;DHT22;61073;54.260;20.816;2022-09-09T05:33:40;19.90;46.00
72930;DHT22;61073;54.260;20.816;2022-09-09T05:36:12;19.90;45.00
72930;DHT22;61073;54.260;20.816;2022-09-09T05:38:40;19.90;45.80
72930;DHT22;61073;54.260;20.816;2022-09-09T05:41:07;19.70;44.80
72930;DHT22;61073;54.260;20.816;2022-09-09T05:43:34;19.80;45.20
72930;DHT22;61073;54.260;20.816;2022-09-09T05:46:10;19.80;45.60
72930;DHT22;61073;54.260;20.816;2022-09-09T05:48:38;19.70;45.10
72930;DHT22;61073;54.260;20.816;2022-09-09T05:51:08;19.60;45.00
72930;DHT22;61073;54.260;20.816;2022-09-09T05:53:36;19.60;45.40
72930;DHT22;61073;54.260;20.816;2022-09-09T05:56:05;19.70;45.10
72930;DHT22;61073;54.260;20.816;2022-09-09T05:58:33;19.70;45.00
72930;DHT22;61073;54.260;20.816;2022-09-09T06:01:08;19.70;44.80
72930;DHT22;61073;54.260;20.816;2022-09-09T06:03:38;19.70;44.60
72930;DHT22;61073;54.260;20.816;2022-09-09T06:06:07;19.70;43.80
72930;DHT22;61073;54.260;20.816;2022-09-09T06:08:35;19.60;44.40
72930;DHT22;61073;54.260;20.816;2022-09-09T06:11:10;19.60;44.50
72930;DHT22;61073;54.260;20.816;2022-09-09T06:13:38;19.60;44.40
72930;DHT22;61073;54.260;20.816;2022-09-09T06:16:09;19.70;44.30
72930;DHT22;61073;54.260;20.816;2022-09-09T06:18:38;19.50;44.00
72930;DHT22;61073;54.260;20.816;2022-09-09T06:21:07;19.50;44.90
72930;DHT22;61073;54.260;20.816;2022-09-09T06:23:34;19.60;44.30
72930;DHT22;61073;54.260;20.816;2022-09-09T06:28:37;19.70;44.50
72930;DHT22;61073;54.260;20.816;2022-09-09T06:31:07;19.70;43.80
72930;DHT22;61073;54.260;20.816;2022-09-09T06:33:36;19.60;43.90
72930;DHT22;61073;54.260;20.816;2022-09-09T06:36:05;19.60;43.80
72930;DHT22;61073;54.260;20.816;2022-09-09T06:38:32;19.60;43.80
72930;DHT22;61073;54.260;20.816;2022-09-09T06:40:59;19.60;44.10
72930;DHT22;61073;54.260;20.816;2022-09-09T06:43:26;19.60;43.80
72930;DHT22;61073;54.260;20.816;2022-09-09T06:45:54;19.60;43.80
72930;DHT22;61073;54.260;20.816;2022-09-09T06:48:21;19.60;44.00
72930;DHT22;61073;54.260;20.816;2022-09-09T06:50:48;19.60;43.80
72930;DHT22;61073;54.260;20.816;2022-09-09T06:53:17;19.60;43.70
72930;DHT22;61073;54.260;20.816;2022-09-09T06:55:45;19.60;44.00
72930;DHT22;61073;54.260;20.816;2022-09-09T06:58:12;19.50;43.80
72930;DHT22;61073;54.260;20.816;2022-09-09T07:00:39;19.50;44.50
72930;DHT22;61073;54.260;20.816;2022-09-09T07:03:06;19.60;46.50
72930;DHT22;61073;54.260;20.816;2022-09-09T07:05:32;19.60;48.30
72930;DHT22;61073;54.260;20.816;2022-09-09T07:07:59;19.70;48.70
72930;DHT22;61073;54.260;20.816;2022-09-09T07:10:25;19.80;51.10
72930;DHT22;61073;54.260;20.816;2022-09-09T07:12:52;19.90;50.50
72930;DHT22;61073;54.260;20.816;2022-09-09T07:15:22;19.90;51.00
72930;DHT22;61073;54.260;20.816;2022-09-09T07:17:49;19.90;50.90
72930;DHT22;61073;54.260;20.816;2022-09-09T07:20:15;20.00;51.30
72930;DHT22;61073;54.260;20.816;2022-09-09T07:22:42;20.10;52.00
72930;DHT22;61073;54.260;20.816;2022-09-09T07:25:09;20.10;51.90
72930;DHT22;61073;54.260;20.816;2022-09-09T07:27:35;20.10;52.10
72930;DHT22;61073;54.260;20.816;2022-09-09T07:30:02;20.10;52.90
72930;DHT22;61073;54.260;20.816;2022-09-09T07:32:30;20.10;53.30
72930;DHT22;61073;54.260;20.816;2022-09-09T07:34:56;20.10;53.80
72930;DHT22;61073;54.260;20.816;2022-09-09T07:37:24;20.20;54.60
72930;DHT22;61073;54.260;20.816;2022-09-09T07:39:51;20.20;53.60
72930;DHT22;61073;54.260;20.816;2022-09-09T07:42:18;20.20;54.10
72930;DHT22;61073;54.260;20.816;2022-09-09T07:44:45;20.20;53.80
72930;DHT22;61073;54.260;20.816;2022-09-09T07:47:12;20.00;52.50
72930;DHT22;61073;54.260;20.816;2022-09-09T07:49:38;19.90;55.00
72930;DHT22;61073;54.260;20.816;2022-09-09T07:52:05;19.90;53.90
72930;DHT22;61073;54.260;20.816;2022-09-09T07:54:33;19.90;53.20
72930;DHT22;61073;54.260;20.816;2022-09-09T07:56:59;19.90;53.10
72930;DHT22;61073;54.260;20.816;2022-09-09T07:59:26;19.70;52.80
72930;DHT22;61073;54.260;20.816;2022-09-09T08:01:56;19.70;53.10
72930;DHT22;61073;54.260;20.816;2022-09-09T08:04:25;19.50;53.40
72930;DHT22;61073;54.260;20.816;2022-09-09T08:06:58;19.50;53.90
72930;DHT22;61073;54.260;20.816;2022-09-09T08:09:26;19.40;53.10
72930;DHT22;61073;54.260;20.816;2022-09-09T08:11:56;19.30;53.50
72930;DHT22;61073;54.260;20.816;2022-09-09T08:14:23;19.30;53.20
72930;DHT22;61073;54.260;20.816;2022-09-09T08:16:51;19.30;53.70
72930;DHT22;61073;54.260;20.816;2022-09-09T08:19:20;19.30;53.50
72930;DHT22;61073;54.260;20.816;2022-09-09T08:21:46;19.40;54.00
72930;DHT22;61073;54.260;20.816;2022-09-09T08:24:15;19.50;53.30
72930;DHT22;61073;54.260;20.816;2022-09-09T08:26:46;19.50;53.00
72930;DHT22;61073;54.260;20.816;2022-09-09T08:29:15;19.50;53.00
72930;DHT22;61073;54.260;20.816;2022-09-09T08:31:47;19.50;53.20
72930;DHT22;61073;54.260;20.816;2022-09-09T08:34:14;19.50;53.00
72930;DHT22;61073;54.260;20.816;2022-09-09T08:36:42;19.60;52.70
72930;DHT22;61073;54.260;20.816;2022-09-09T08:39:11;19.50;52.80
72930;DHT22;61073;54.260;20.816;2022-09-09T08:44:43;19.40;52.80
72930;DHT22;61073;54.260;20.816;2022-09-09T08:50:26;19.60;53.60
72930;DHT22;61073;54.260;20.816;2022-09-09T08:55:58;19.50;53.40
72930;DHT22;61073;54.260;20.816;2022-09-09T08:58:30;19.50;53.50
72930;DHT22;61073;54.260;20.816;2022-09-09T09:06:55;19.50;54.10
72930;DHT22;61073;54.260;20.816;2022-09-09T09:12:38;19.60;54.70
72930;DHT22;61073;54.260;20.816;2022-09-09T09:17:57;19.60;55.20
72930;DHT22;61073;54.260;20.816;2022-09-09T09:20:39;19.60;55.10
72930;DHT22;61073;54.260;20.816;2022-09-09T09:23:21;19.70;55.20
72930;DHT22;61073;54.260;20.816;2022-09-09T09:25:48;19.70;55.70
72930;DHT22;61073;54.260;20.816;2022-09-09T09:28:25;19.70;56.10
72930;DHT22;61073;54.260;20.816;2022-09-09T09:31:03;19.60;55.90
72930;DHT22;61073;54.260;20.816;2022-09-09T09:33:50;19.70;56.50
72930;DHT22;61073;54.260;20.816;2022-09-09T09:36:21;19.70;56.70
72930;DHT22;61073;54.260;20.816;2022-09-09T09:39:00;19.70;56.30
72930;DHT22;61073;54.260;20.816;2022-09-09T09:41:47;19.80;56.10
72930;DHT22;61073;54.260;20.816;2022-09-09T09:46:46;19.80;56.00
72930;DHT22;61073;54.260;20.816;2022-09-09T09:49:13;19.70;56.00
72930;DHT22;61073;54.260;20.816;2022-09-09T09:51:40;19.90;57.60
72930;DHT22;61073;54.260;20.816;2022-09-09T09:54:14;19.90;57.20
72930;DHT22;61073;54.260;20.816;2022-09-09T09:56:43;20.10;57.80
72930;DHT22;61073;54.260;20.816;2022-09-09T09:59:34;20.00;57.70
72930;DHT22;61073;54.260;20.816;2022-09-09T10:02:24;20.20;58.30
72930;DHT22;61073;54.260;20.816;2022-09-09T10:07:44;20.30;60.60
72930;DHT22;61073;54.260;20.816;2022-09-09T10:13:27;20.40;58.90
72930;DHT22;61073;54.260;20.816;2022-09-09T10:16:06;20.50;58.70
72930;DHT22;61073;54.260;20.816;2022-09-09T10:18:36;20.40;58.40
72930;DHT22;61073;54.260;20.816;2022-09-09T10:27:20;20.40;59.90
72930;DHT22;61073;54.260;20.816;2022-09-09T10:32:50;20.50;58.90
72930;DHT22;61073;54.260;20.816;2022-09-09T10:54:54;20.30;62.10
72930;DHT22;61073;54.260;20.816;2022-09-09T10:57:28;20.40;62.70
72930;DHT22;61073;54.260;20.816;2022-09-09T11:00:06;20.30;61.00
72930;DHT22;61073;54.260;20.816;2022-09-09T11:02:35;20.50;61.10
72930;DHT22;61073;54.260;20.816;2022-09-09T11:05:24;20.50;62.90
72930;DHT22;61073;54.260;20.816;2022-09-09T11:08:01;20.40;62.80
72930;DHT22;61073;54.260;20.816;2022-09-09T11:10:51;20.50;62.60
72930;DHT22;61073;54.260;20.816;2022-09-09T11:16:39;20.70;61.50
72930;DHT22;61073;54.260;20.816;2022-09-09T11:19:13;20.70;61.90
72930;DHT22;61073;54.260;20.816;2022-09-09T11:21:47;20.60;62.10
72930;DHT22;61073;54.260;20.816;2022-09-09T11:27:33;20.60;62.20
72930;DHT22;61073;54.260;20.816;2022-09-09T11:38:23;20.30;59.20
72930;DHT22;61073;54.260;20.816;2022-09-09T11:41:01;20.30;61.20
72930;DHT22;61073;54.260;20.816;2022-09-09T11:46:14;19.80;61.40
72930;DHT22;61073;54.260;20.816;2022-09-09T11:48:44;20.00;61.90
72930;DHT22;61073;54.260;20.816;2022-09-09T11:53:51;20.10;62.00
72930;DHT22;61073;54.260;20.816;2022-09-09T11:56:25;20.10;60.40
72930;DHT22;61073;54.260;20.816;2022-09-09T12:01:41;20.20;61.70
72930;DHT22;61073;54.260;20.816;2022-09-09T12:12:32;20.50;61.00
72930;DHT22;61073;54.260;20.816;2022-09-09T12:14:55;20.40;58.70
72930;DHT22;61073;54.260;20.816;2022-09-09T12:17:23;20.30;59.50
72930;DHT22;61073;54.260;20.816;2022-09-09T12:22:42;20.20;59.70
72930;DHT22;61073;54.260;20.816;2022-09-09T12:25:18;20.40;60.90
72930;DHT22;61073;54.260;20.816;2022-09-09T12:30:16;20.20;60.80
72930;DHT22;61073;54.260;20.816;2022-09-09T12:32:43;20.20;59.20
72930;DHT22;61073;54.260;20.816;2022-09-09T12:38:00;20.10;60.10
72930;DHT22;61073;54.260;20.816;2022-09-09T12:40:31;20.00;59.20
72930;DHT22;61073;54.260;20.816;2022-09-09T12:42:58;20.00;58.20
72930;DHT22;61073;54.260;20.816;2022-09-09T12:45:27;19.40;59.20
72930;DHT22;61073;54.260;20.816;2022-09-09T12:50:44;18.90;61.00
72930;DHT22;61073;54.260;20.816;2022-09-09T12:53:13;18.40;61.20
72930;DHT22;61073;54.260;20.816;2022-09-09T12:55:49;18.60;62.10
72930;DHT22;61073;54.260;20.816;2022-09-09T12:58:16;18.80;61.00
72930;DHT22;61073;54.260;20.816;2022-09-09T13:03:32;18.90;60.30
72930;DHT22;61073;54.260;20.816;2022-09-09T13:06:21;18.60;60.70
72930;DHT22;61073;54.260;20.816;2022-09-09T13:08:51;18.90;61.70
72930;DHT22;61073;54.260;20.816;2022-09-09T13:11:22;19.20;63.20
72930;DHT22;61073;54.260;20.816;2022-09-09T13:13:53;19.40;64.70
72930;DHT22;61073;54.260;20.816;2022-09-09T13:18:47;19.70;65.40
72930;DHT22;61073;54.260;20.816;2022-09-09T13:21:14;19.80;67.70
72930;DHT22;61073;54.260;20.816;2022-09-09T13:23:41;19.90;69.20
72930;DHT22;61073;54.260;20.816;2022-09-09T13:28:53;20.10;70.50
72930;DHT22;61073;54.260;20.816;2022-09-09T13:31:24;20.10;70.90
72930;DHT22;61073;54.260;20.816;2022-09-09T13:33:53;20.10;71.00
72930;DHT22;61073;54.260;20.816;2022-09-09T13:36:27;20.20;71.60
72930;DHT22;61073;54.260;20.816;2022-09-09T13:38:55;20.20;71.50
72930;DHT22;61073;54.260;20.816;2022-09-09T13:41:22;20.20;68.90
72930;DHT22;61073;54.260;20.816;2022-09-09T13:43:50;20.20;68.80
72930;DHT22;61073;54.260;20.816;2022-09-09T13:51:37;20.20;67.70
72930;DHT22;61073;54.260;20.816;2022-09-09T13:54:08;20.20;68.80
72930;DHT22;61073;54.260;20.816;2022-09-09T13:56:36;20.20;68.50
72930;DHT22;61073;54.260;20.816;2022-09-09T13:59:03;20.30;68.60
72930;DHT22;61073;54.260;20.816;2022-09-09T14:01:30;20.20;68.10
72930;DHT22;61073;54.260;20.816;2022-09-09T14:03:57;20.20;68.10
72930;DHT22;61073;54.260;20.816;2022-09-09T14:06:25;20.20;67.60
72930;DHT22;61073;54.260;20.816;2022-09-09T14:08:51;20.20;67.50
72930;DHT22;61073;54.260;20.816;2022-09-09T14:11:18;20.20;67.80
72930;DHT22;61073;54.260;20.816;2022-09-09T14:13:45;20.20;67.40
72930;DHT22;61073;54.260;20.816;2022-09-09T14:16:12;20.30;67.30
72930;DHT22;61073;54.260;20.816;2022-09-09T14:18:38;20.20;66.90
72930;DHT22;61073;54.260;20.816;2022-09-09T14:21:05;20.20;67.30
72930;DHT22;61073;54.260;20.816;2022-09-09T14:23:33;20.30;66.80
72930;DHT22;61073;54.260;20.816;2022-09-09T14:26:00;20.20;66.60
72930;DHT22;61073;54.260;20.816;2022-09-09T14:28:26;20.20;66.60
72930;DHT22;61073;54.260;20.816;2022-09-09T14:31:10;20.20;65.90
72930;DHT22;61073;54.260;20.816;2022-09-09T14:33:37;20.20;66.00
72930;DHT22;61073;54.260;20.816;2022-09-09T14:36:03;20.20;66.30
72930;DHT22;61073;54.260;20.816;2022-09-09T14:38:31;20.20;65.90
72930;DHT22;61073;54.260;20.816;2022-09-09T14:40:57;20.20;66.20
72930;DHT22;61073;54.260;20.816;2022-09-09T14:43:24;20.20;65.80
72930;DHT22;61073;54.260;20.816;2022-09-09T14:45:52;20.20;65.80
72930;DHT22;61073;54.260;20.816;2022-09-09T14:48:18;20.20;65.80
72930;DHT22;61073;54.260;20.816;2022-09-09T14:50:45;20.20;66.00
72930;DHT22;61073;54.260;20.816;2022-09-09T14:53:11;20.20;65.40
72930;DHT22;61073;54.260;20.816;2022-09-09T14:55:38;20.10;65.70
72930;DHT22;61073;54.260;20.816;2022-09-09T14:58:05;20.20;65.50
72930;DHT22;61073;54.260;20.816;2022-09-09T15:00:32;20.20;65.40
72930;DHT22;61073;54.260;20.816;2022-09-09T15:02:59;20.20;65.20
72930;DHT22;61073;54.260;20.816;2022-09-09T15:05:25;20.20;65.40
72930;DHT22;61073;54.260;20.816;2022-09-09T15:07:52;20.20;65.00
72930;DHT22;61073;54.260;20.816;2022-09-09T15:10:18;20.20;64.80
72930;DHT22;61073;54.260;20.816;2022-09-09T15:12:45;20.20;64.60
72930;DHT22;61073;54.260;20.816;2022-09-09T15:15:11;20.20;64.20
72930;DHT22;61073;54.260;20.816;2022-09-09T15:17:39;20.20;65.10
72930;DHT22;61073;54.260;20.816;2022-09-09T15:20:06;20.10;64.70
72930;DHT22;61073;54.260;20.816;2022-09-09T15:22:33;20.20;64.90
72930;DHT22;61073;54.260;20.816;2022-09-09T15:25:00;20.20;64.30
72930;DHT22;61073;54.260;20.816;2022-09-09T15:27:26;20.20;64.30
72930;DHT22;61073;54.260;20.816;2022-09-09T15:29:53;20.20;64.50
72930;DHT22;61073;54.260;20.816;2022-09-09T15:32:19;20.20;64.20
72930;DHT22;61073;54.260;20.816;2022-09-09T15:34:46;20.20;64.10
72930;DHT22;61073;54.260;20.816;2022-09-09T15:37:12;20.10;64.20
72930;DHT22;61073;54.260;20.816;2022-09-09T15:39:39;20.20;64.20
72930;DHT22;61073;54.260;20.816;2022-09-09T15:42:07;20.10;64.00
72930;DHT22;61073;54.260;20.816;2022-09-09T15:44:38;20.20;64.10
72930;DHT22;61073;54.260;20.816;2022-09-09T15:47:04;20.20;63.90
72930;DHT22;61073;54.260;20.816;2022-09-09T15:49:31;20.10;63.70
72930;DHT22;61073;54.260;20.816;2022-09-09T15:51:58;20.20;63.60
72930;DHT22;61073;54.260;20.816;2022-09-09T15:54:33;20.20;63.90
72930;DHT22;61073;54.260;20.816;2022-09-09T15:57:02;20.20;63.90
72930;DHT22;61073;54.260;20.816;2022-09-09T15:59:29;20.20;63.50
72930;DHT22;61073;54.260;20.816;2022-09-09T16:01:57;20.10;63.20
72930;DHT22;61073;54.260;20.816;2022-09-09T16:04:25;20.20;63.60
72930;DHT22;61073;54.260;20.816;2022-09-09T16:06:59;20.20;63.40
72930;DHT22;61073;54.260;20.816;2022-09-09T16:09:26;20.10;63.50
72930;DHT22;61073;54.260;20.816;2022-09-09T16:11:55;20.20;63.00
72930;DHT22;61073;54.260;20.816;2022-09-09T16:14:22;20.10;63.40
72930;DHT22;61073;54.260;20.816;2022-09-09T16:16:49;20.20;63.20
72930;DHT22;61073;54.260;20.816;2022-09-09T16:19:15;20.20;63.30
72930;DHT22;61073;54.260;20.816;2022-09-09T16:21:43;20.10;63.00
72930;DHT22;61073;54.260;20.816;2022-09-09T16:24:11;20.10;63.30
72930;DHT22;61073;54.260;20.816;2022-09-09T16:26:39;20.20;63.10
72930;DHT22;61073;54.260;20.816;2022-09-09T16:29:06;20.10;62.90
72930;DHT22;61073;54.260;20.816;2022-09-09T16:31:33;20.10;63.00
72930;DHT22;61073;54.260;20.816;2022-09-09T16:34:00;20.10;62.80
72930;DHT22;61073;54.260;20.816;2022-09-09T16:36:27;20.10;62.90
72930;DHT22;61073;54.260;20.816;2022-09-09T16:38:54;20.10;62.90
72930;DHT22;61073;54.260;20.816;2022-09-09T16:41:21;20.10;62.90
72930;DHT22;61073;54.260;20.816;2022-09-09T16:43:51;20.10;63.00
72930;DHT22;61073;54.260;20.816;2022-09-09T16:46:18;20.10;62.80
72930;DHT22;61073;54.260;20.816;2022-09-09T16:48:46;20.10;62.90
72930;DHT22;61073;54.260;20.816;2022-09-09T16:51:14;20.10;62.70
72930;DHT22;61073;54.260;20.816;2022-09-09T16:53:41;20.10;62.30
72930;DHT22;61073;54.260;20.816;2022-09-09T16:56:12;20.10;62.80
72930;DHT22;61073;54.260;20.816;2022-09-09T16:58:39;20.10;62.70
72930;DHT22;61073;54.260;20.816;2022-09-09T17:01:05;20.10;62.60
72930;DHT22;61073;54.260;20.816;2022-09-09T17:03:32;20.10;62.20
72930;DHT22;61073;54.260;20.816;2022-09-09T17:05:59;20.10;62.30
72930;DHT22;61073;54.260;20.816;2022-09-09T17:08:29;20.10;62.30
72930;DHT22;61073;54.260;20.816;2022-09-09T17:10:56;20.10;62.20
72930;DHT22;61073;54.260;20.816;2022-09-09T17:13:23;20.10;62.20
72930;DHT22;61073;54.260;20.816;2022-09-09T17:15:49;20.10;62.00
72930;DHT22;61073;54.260;20.816;2022-09-09T17:18:16;20.10;61.90
72930;DHT22;61073;54.260;20.816;2022-09-09T17:20:43;20.10;62.00
72930;DHT22;61073;54.260;20.816;2022-09-09T17:23:12;20.10;62.00
72930;DHT22;61073;54.260;20.816;2022-09-09T17:25:42;20.10;62.20
72930;DHT22;61073;54.260;20.816;2022-09-09T17:28:09;20.10;61.90
72930;DHT22;61073;54.260;20.816;2022-09-09T17:30:36;20.10;61.90
72930;DHT22;61073;54.260;20.816;2022-09-09T17:33:03;20.10;62.00
72930;DHT22;61073;54.260;20.816;2022-09-09T17:35:30;20.10;61.70
72930;DHT22;61073;54.260;20.816;2022-09-09T17:37:57;20.10;61.70
72930;DHT22;61073;54.260;20.816;2022-09-09T17:40:24;20.10;61.50
72930;DHT22;61073;54.260;20.816;2022-09-09T17:42:51;20.10;61.50
72930;DHT22;61073;54.260;20.816;2022-09-09T17:45:17;20.10;61.70
72930;DHT22;61073;54.260;20.816;2022-09-09T17:47:44;20.00;61.60
72930;DHT22;61073;54.260;20.816;2022-09-09T17:50:10;20.10;61.70
72930;DHT22;61073;54.260;20.816;2022-09-09T17:52:39;20.10;61.40
72930;DHT22;61073;54.260;20.816;2022-09-09T17:55:07;20.10;61.60
72930;DHT22;61073;54.260;20.816;2022-09-09T17:57:36;20.00;61.20
72930;DHT22;61073;54.260;20.816;2022-09-09T18:00:04;20.10;61.10
72930;DHT22;61073;54.260;20.816;2022-09-09T18:02:31;20.00;61.80
72930;DHT22;61073;54.260;20.816;2022-09-09T18:04:57;20.00;61.10
72930;DHT22;61073;54.260;20.816;2022-09-09T18:07:24;20.10;61.60
72930;DHT22;61073;54.260;20.816;2022-09-09T18:09:51;20.10;61.00
72930;DHT22;61073;54.260;20.816;2022-09-09T18:12:18;20.10;61.10
72930;DHT22;61073;54.260;20.816;2022-09-09T18:14:44;20.10;61.10
72930;DHT22;61073;54.260;20.816;2022-09-09T18:17:11;20.10;61.40
72930;DHT22;61073;54.260;20.816;2022-09-09T18:19:37;20.10;61.00
72930;DHT22;61073;54.260;20.816;2022-09-09T18:22:04;20.10;60.80
72930;DHT22;61073;54.260;20.816;2022-09-09T18:24:32;20.00;60.90
72930;DHT22;61073;54.260;20.816;2022-09-09T18:26:59;20.10;60.80